sensor_id;sensor_type;location;lat;lon;timestamp;P1;durP1;ratioP1;P2;durP2;ratioP2
9848;SDS011;4963;51.444;6.528;2023-06-24T00:02:03;7.45;;;5.68;;
9848;SDS011;4963;51.444;6.528;2023-06-24T00:04:31;6.40;;;5.80;;
9848;SDS011;4963;51.444;6.528;2023-06-24T00:07:00;5.95;;;5.25;;
9848;SDS011;4963;51.444;6.528;2023-06-24T00:12:49;5.82;;;5.22;;
9848;SDS011;4963;51.444;6.528;2023-06-24T00:15:16;7.70;;;5.78;;
9848;SDS011;4963;51.444;6.528;2023-06-24T00:17:43;5.90;;;5.30;;
9848;SDS011;4963;51.444;6.528;2023-06-24T00:20:10;6.40;;;5.60;;
9848;SDS011;4963;51.444;6.528;2023-06-24T00:22:41;5.65;;;5.15;;
9848;SDS011;4963;51.444;6.528;2023-06-24T00:25:09;7.68;;;6.10;;
9848;SDS011;4963;51.444;6.528;2023-06-24T00:27:36;6.28;;;5.68;;
9848;SDS011;4963;51.444;6.528;2023-06-24T00:30:03;6.78;;;5.55;;
9848;SDS011;4963;51.444;6.528;2023-06-24T00:32:30;5.68;;;5.18;;
9848;SDS011;4963;51.444;6.528;2023-06-24T00:34:58;6.10;;;5.47;;
9848;SDS011;4963;51.444;6.528;2023-06-24T00:37:25;6.15;;;4.97;;
9848;SDS011;4963;51.444;6.528;2023-06-24T00:39:53;6.85;;;5.57;;
9848;SDS011;4963;51.444;6.528;2023-06-24T00:42:20;5.60;;;5.10;;
9848;SDS011;4963;51.444;6.528;2023-06-24T00:44:47;6.15;;;5.55;;
9848;SDS011;4963;51.444;6.528;2023-06-24T00:47:14;6.07;;;5.53;;
9848;SDS011;4963;51.444;6.528;2023-06-24T00:49:42;6.10;;;5.50;;
9848;SDS011;4963;51.444;6.528;2023-06-24T00:52:10;5.40;;;4.90;;
9848;SDS011;4963;51.444;6.528;2023-06-24T00:58:04;5.68;;;5.18;;
9848;SDS011;4963;51.444;6.528;2023-06-24T01:00:31;7.35;;;5.53;;
9848;SDS011;4963;51.444;6.528;2023-06-24T01:02:59;7.90;;;5.35;;
9848;SDS011;4963;51.444;6.528;2023-06-24T01:05:27;5.97;;;5.38;;
9848;SDS011;4963;51.444;6.528;2023-06-24T01:08:00;6.18;;;5.55;;
9848;SDS011;4963;51.444;6.528;2023-06-24T01:10:28;5.68;;;5.18;;
9848;SDS011;4963;51.444;6.528;2023-06-24T01:12:55;8.10;;;5.65;;
9848;SDS011;4963;51.444;6.528;2023-06-24T01:15:23;7.15;;;5.95;;
9848;SDS011;4963;51.444;6.528;2023-06-24T01:17:54;6.15;;;5.55;;
9848;SDS011;4963;51.444;6.528;2023-06-24T01:20:27;6.25;;;5.65;;
9848;SDS011;4963;51.444;6.528;2023-06-24T01:29:24;7.85;;;5.82;;
9848;SDS011;4963;51.444;6.528;2023-06-24T01:32:13;6.95;;;6.25;;
9848;SDS011;4963;51.444;6.528;2023-06-24T01:34:51;6.65;;;5.90;;
9848;SDS011;4963;51.444;6.528;2023-06-24T01:37:25;6.78;;;6.10;;
9848;SDS011;4963;51.444;6.528;2023-06-24T01:39:56;6.07;;;5.45;;
9848;SDS011;4963;51.444;6.528;2023-06-24T01:42:33;8.63;;;6.63;;
9848;SDS011;4963;51.444;6.528;2023-06-24T01:45:03;6.00;;;5.40;;
9848;SDS011;4963;51.444;6.528;2023-06-24T01:47:34;6.18;;;5.57;;
9848;SDS011;4963;51.444;6.528;2023-06-24T01:50:02;10.70;;;6.60;;
9848;SDS011;4963;51.444;6.528;2023-06-24T01:52:31;7.15;;;5.70;;
9848;SDS011;4963;51.444;6.528;2023-06-24T01:55:00;6.43;;;5.82;;
9848;SDS011;4963;51.444;6.528;2023-06-24T01:57:28;6.65;;;6.05;;
9848;SDS011;4963;51.444;6.528;2023-06-24T01:59:59;7.35;;;6.50;;
9848;SDS011;4963;51.444;6.528;2023-06-24T02:02:31;7.45;;;6.15;;
9848;SDS011;4963;51.444;6.528;2023-06-24T02:05:01;7.47;;;6.78;;
9848;SDS011;4963;51.444;6.528;2023-06-24T02:07:30;9.00;;;7.90;;
9848;SDS011;4963;51.444;6.528;2023-06-24T02:09:59;8.80;;;7.28;;
9848;SDS011;4963;51.444;6.528;2023-06-24T02:12:28;7.50;;;6.68;;
9848;SDS011;4963;51.444;6.528;2023-06-24T02:14:56;8.00;;;6.65;;
9848;SDS011;4963;51.444;6.528;2023-06-24T02:17:25;7.95;;;7.15;;
9848;SDS011;4963;51.444;6.528;2023-06-24T02:19:55;6.93;;;6.22;;
9848;SDS011;4963;51.444;6.528;2023-06-24T02:22:23;7.43;;;6.57;;
9848;SDS011;4963;51.444;6.528;2023-06-24T02:24:51;7.65;;;6.63;;
9848;SDS011;4963;51.444;6.528;2023-06-24T02:27:19;6.30;;;5.80;;
9848;SDS011;4963;51.444;6.528;2023-06-24T02:29:47;7.05;;;6.35;;
9848;SDS011;4963;51.444;6.528;2023-06-24T02:32:15;7.35;;;6.65;;
9848;SDS011;4963;51.444;6.528;2023-06-24T02:34:42;6.90;;;6.20;;
9848;SDS011;4963;51.444;6.528;2023-06-24T02:37:10;7.18;;;6.47;;
9848;SDS011;4963;51.444;6.528;2023-06-24T02:39:37;7.65;;;6.32;;
9848;SDS011;4963;51.444;6.528;2023-06-24T02:42:09;6.45;;;5.93;;
9848;SDS011;4963;51.444;6.528;2023-06-24T02:44:36;8.95;;;7.32;;
9848;SDS011;4963;51.444;6.528;2023-06-24T02:47:04;9.00;;;7.90;;
9848;SDS011;4963;51.444;6.528;2023-06-24T02:49:33;9.35;;;8.27;;
9848;SDS011;4963;51.444;6.528;2023-06-24T02:52:03;8.80;;;7.45;;
9848;SDS011;4963;51.444;6.528;2023-06-24T02:54:32;9.57;;;8.15;;
9848;SDS011;4963;51.444;6.528;2023-06-24T02:57:00;8.40;;;7.63;;
9848;SDS011;4963;51.444;6.528;2023-06-24T02:59:31;7.78;;;6.97;;
9848;SDS011;4963;51.444;6.528;2023-06-24T03:01:57;7.95;;;6.50;;
9848;SDS011;4963;51.444;6.528;2023-06-24T03:04:25;8.40;;;6.85;;
9848;SDS011;4963;51.444;6.528;2023-06-24T03:06:53;7.28;;;6.57;;
9848;SDS011;4963;51.444;6.528;2023-06-24T03:09:21;10.13;;;6.97;;
9848;SDS011;4963;51.444;6.528;2023-06-24T03:11:50;8.45;;;7.35;;
9848;SDS011;4963;51.444;6.528;2023-06-24T03:14:17;9.43;;;7.28;;
9848;SDS011;4963;51.444;6.528;2023-06-24T03:16:44;8.35;;;6.55;;
9848;SDS011;4963;51.444;6.528;2023-06-24T03:22:15;8.07;;;6.95;;
9848;SDS011;4963;51.444;6.528;2023-06-24T03:24:42;8.10;;;7.30;;
9848;SDS011;4963;51.444;6.528;2023-06-24T03:27:10;9.07;;;6.70;;
9848;SDS011;4963;51.444;6.528;2023-06-24T03:29:38;8.55;;;7.43;;
9848;SDS011;4963;51.444;6.528;2023-06-24T03:32:05;9.38;;;8.18;;
9848;SDS011;4963;51.444;6.528;2023-06-24T03:34:32;8.85;;;7.68;;
9848;SDS011;4963;51.444;6.528;2023-06-24T03:36:59;9.23;;;8.18;;
9848;SDS011;4963;51.444;6.528;2023-06-24T03:39:26;11.82;;;7.47;;
9848;SDS011;4963;51.444;6.528;2023-06-24T03:41:52;9.18;;;8.27;;
9848;SDS011;4963;51.444;6.528;2023-06-24T03:44:21;8.02;;;7.25;;
9848;SDS011;4963;51.444;6.528;2023-06-24T03:46:48;8.98;;;7.53;;
9848;SDS011;4963;51.444;6.528;2023-06-24T03:49:14;9.23;;;8.32;;
9848;SDS011;4963;51.444;6.528;2023-06-24T03:55:04;8.43;;;7.53;;
9848;SDS011;4963;51.444;6.528;2023-06-24T03:57:31;8.60;;;7.70;;
9848;SDS011;4963;51.444;6.528;2023-06-24T03:59:59;8.75;;;7.80;;
9848;SDS011;4963;51.444;6.528;2023-06-24T04:02:32;8.77;;;7.88;;
9848;SDS011;4963;51.444;6.528;2023-06-24T04:04:59;9.10;;;7.55;;
9848;SDS011;4963;51.444;6.528;2023-06-24T04:07:26;8.48;;;7.68;;
9848;SDS011;4963;51.444;6.528;2023-06-24T04:09:54;9.63;;;8.50;;
9848;SDS011;4963;51.444;6.528;2023-06-24T04:12:22;10.25;;;9.25;;
9848;SDS011;4963;51.444;6.528;2023-06-24T04:14:49;10.73;;;9.35;;
9848;SDS011;4963;51.444;6.528;2023-06-24T04:17:17;9.68;;;8.73;;
9848;SDS011;4963;51.444;6.528;2023-06-24T04:19:44;11.65;;;9.65;;
9848;SDS011;4963;51.444;6.528;2023-06-24T04:22:11;11.38;;;9.25;;
9848;SDS011;4963;51.444;6.528;2023-06-24T04:24:38;11.90;;;9.77;;
9848;SDS011;4963;51.444;6.528;2023-06-24T04:27:05;10.95;;;9.80;;
9848;SDS011;4963;51.444;6.528;2023-06-24T04:29:33;10.40;;;9.40;;
9848;SDS011;4963;51.444;6.528;2023-06-24T04:32:00;10.98;;;9.88;;
9848;SDS011;4963;51.444;6.528;2023-06-24T04:34:28;12.32;;;10.77;;
9848;SDS011;4963;51.444;6.528;2023-06-24T04:40:17;13.32;;;10.85;;
9848;SDS011;4963;51.444;6.528;2023-06-24T04:42:45;13.95;;;10.20;;
9848;SDS011;4963;51.444;6.528;2023-06-24T04:45:11;13.63;;;10.82;;
9848;SDS011;4963;51.444;6.528;2023-06-24T04:47:38;14.82;;;11.32;;
9848;SDS011;4963;51.444;6.528;2023-06-24T04:50:07;13.60;;;10.45;;
9848;SDS011;4963;51.444;6.528;2023-06-24T04:52:35;15.00;;;10.65;;
9848;SDS011;4963;51.444;6.528;2023-06-24T04:55:03;13.35;;;11.27;;
9848;SDS011;4963;51.444;6.528;2023-06-24T04:57:31;15.77;;;10.63;;
9848;SDS011;4963;51.444;6.528;2023-06-24T04:59:59;16.75;;;11.93;;
9848;SDS011;4963;51.444;6.528;2023-06-24T05:02:26;13.68;;;10.20;;
9848;SDS011;4963;51.444;6.528;2023-06-24T05:04:53;11.93;;;10.02;;
9848;SDS011;4963;51.444;6.528;2023-06-24T05:07:21;13.05;;;11.25;;
9848;SDS011;4963;51.444;6.528;2023-06-24T05:09:48;12.52;;;10.73;;
9848;SDS011;4963;51.444;6.528;2023-06-24T05:12:16;13.35;;;10.15;;
9848;SDS011;4963;51.444;6.528;2023-06-24T05:14:43;12.20;;;9.85;;
9848;SDS011;4963;51.444;6.528;2023-06-24T05:17:10;11.32;;;9.13;;
9848;SDS011;4963;51.444;6.528;2023-06-24T05:19:37;13.70;;;11.57;;
9848;SDS011;4963;51.444;6.528;2023-06-24T05:22:03;13.45;;;12.00;;
9848;SDS011;4963;51.444;6.528;2023-06-24T05:24:32;15.80;;;11.38;;
9848;SDS011;4963;51.444;6.528;2023-06-24T05:27:03;15.75;;;11.43;;
9848;SDS011;4963;51.444;6.528;2023-06-24T05:29:31;14.10;;;11.18;;
9848;SDS011;4963;51.444;6.528;2023-06-24T05:31:58;13.38;;;11.05;;
9848;SDS011;4963;51.444;6.528;2023-06-24T05:34:27;13.00;;;11.70;;
9848;SDS011;4963;51.444;6.528;2023-06-24T05:36:53;13.77;;;11.85;;
9848;SDS011;4963;51.444;6.528;2023-06-24T05:39:20;13.07;;;11.50;;
9848;SDS011;4963;51.444;6.528;2023-06-24T05:41:49;13.85;;;12.20;;
9848;SDS011;4963;51.444;6.528;2023-06-24T05:44:15;16.13;;;13.50;;
9848;SDS011;4963;51.444;6.528;2023-06-24T05:46:43;16.17;;;12.55;;
9848;SDS011;4963;51.444;6.528;2023-06-24T05:52:32;17.00;;;14.00;;
9848;SDS011;4963;51.444;6.528;2023-06-24T05:54:59;14.18;;;12.02;;
9848;SDS011;4963;51.444;6.528;2023-06-24T05:57:27;15.95;;;14.15;;
9848;SDS011;4963;51.444;6.528;2023-06-24T05:59:54;15.50;;;13.77;;
9848;SDS011;4963;51.444;6.528;2023-06-24T06:02:20;13.70;;;12.30;;
9848;SDS011;4963;51.444;6.528;2023-06-24T06:04:47;14.82;;;13.18;;
9848;SDS011;4963;51.444;6.528;2023-06-24T06:07:14;13.35;;;11.65;;
9848;SDS011;4963;51.444;6.528;2023-06-24T06:09:41;14.30;;;11.75;;
9848;SDS011;4963;51.444;6.528;2023-06-24T06:12:08;15.18;;;13.57;;
9848;SDS011;4963;51.444;6.528;2023-06-24T06:14:37;15.80;;;14.10;;
9848;SDS011;4963;51.444;6.528;2023-06-24T06:17:04;15.45;;;13.95;;
9848;SDS011;4963;51.444;6.528;2023-06-24T06:19:31;15.20;;;12.60;;
9848;SDS011;4963;51.444;6.528;2023-06-24T06:21:58;14.45;;;12.95;;
9848;SDS011;4963;51.444;6.528;2023-06-24T06:24:25;13.90;;;12.63;;
9848;SDS011;4963;51.444;6.528;2023-06-24T06:26:52;14.57;;;13.18;;
9848;SDS011;4963;51.444;6.528;2023-06-24T06:29:19;16.83;;;13.68;;
9848;SDS011;4963;51.444;6.528;2023-06-24T06:31:47;14.63;;;13.13;;
9848;SDS011;4963;51.444;6.528;2023-06-24T06:34:14;15.05;;;13.48;;
9848;SDS011;4963;51.444;6.528;2023-06-24T06:36:41;14.30;;;12.75;;
9848;SDS011;4963;51.444;6.528;2023-06-24T06:39:08;14.98;;;11.95;;
9848;SDS011;4963;51.444;6.528;2023-06-24T06:41:34;13.25;;;11.95;;
9848;SDS011;4963;51.444;6.528;2023-06-24T06:44:01;13.13;;;11.80;;
9848;SDS011;4963;51.444;6.528;2023-06-24T06:46:28;13.40;;;12.10;;
9848;SDS011;4963;51.444;6.528;2023-06-24T06:48:57;12.45;;;11.20;;
9848;SDS011;4963;51.444;6.528;2023-06-24T06:51:25;13.63;;;11.32;;
9848;SDS011;4963;51.444;6.528;2023-06-24T06:53:52;11.43;;;10.23;;
9848;SDS011;4963;51.444;6.528;2023-06-24T06:56:19;12.02;;;10.93;;
9848;SDS011;4963;51.444;6.528;2023-06-24T06:58:49;10.30;;;9.23;;
9848;SDS011;4963;51.444;6.528;2023-06-24T07:01:17;11.07;;;9.68;;
9848;SDS011;4963;51.444;6.528;2023-06-24T07:03:44;10.50;;;9.40;;
9848;SDS011;4963;51.444;6.528;2023-06-24T07:06:13;11.52;;;9.90;;
9848;SDS011;4963;51.444;6.528;2023-06-24T07:08:40;10.30;;;8.40;;
9848;SDS011;4963;51.444;6.528;2023-06-24T07:11:06;9.27;;;8.38;;
9848;SDS011;4963;51.444;6.528;2023-06-24T07:13:33;11.20;;;8.32;;
9848;SDS011;4963;51.444;6.528;2023-06-24T07:16:00;9.32;;;8.43;;
9848;SDS011;4963;51.444;6.528;2023-06-24T07:18:27;8.00;;;7.25;;
9848;SDS011;4963;51.444;6.528;2023-06-24T07:20:55;9.82;;;7.38;;
9848;SDS011;4963;51.444;6.528;2023-06-24T07:23:24;7.47;;;6.70;;
9848;SDS011;4963;51.444;6.528;2023-06-24T07:25:51;8.45;;;7.10;;
9848;SDS011;4963;51.444;6.528;2023-06-24T07:28:18;8.48;;;6.50;;
9848;SDS011;4963;51.444;6.528;2023-06-24T07:30:44;8.50;;;6.40;;
9848;SDS011;4963;51.444;6.528;2023-06-24T07:33:13;6.72;;;6.03;;
9848;SDS011;4963;51.444;6.528;2023-06-24T07:35:43;6.15;;;5.65;;
9848;SDS011;4963;51.444;6.528;2023-06-24T07:38:09;6.50;;;5.90;;
9848;SDS011;4963;51.444;6.528;2023-06-24T07:40:38;8.85;;;6.97;;
9848;SDS011;4963;51.444;6.528;2023-06-24T07:43:05;7.18;;;6.47;;
9848;SDS011;4963;51.444;6.528;2023-06-24T07:45:32;6.00;;;5.40;;
9848;SDS011;4963;51.444;6.528;2023-06-24T07:47:59;7.38;;;5.75;;
9848;SDS011;4963;51.444;6.528;2023-06-24T07:50:26;7.65;;;6.50;;
9848;SDS011;4963;51.444;6.528;2023-06-24T07:52:53;6.72;;;6.05;;
9848;SDS011;4963;51.444;6.528;2023-06-24T07:55:20;7.90;;;5.65;;
9848;SDS011;4963;51.444;6.528;2023-06-24T07:57:48;5.53;;;4.95;;
9848;SDS011;4963;51.444;6.528;2023-06-24T08:00:15;6.05;;;5.38;;
9848;SDS011;4963;51.444;6.528;2023-06-24T08:02:42;6.13;;;5.15;;
9848;SDS011;4963;51.444;6.528;2023-06-24T08:05:09;5.00;;;4.50;;
9848;SDS011;4963;51.444;6.528;2023-06-24T08:07:37;6.07;;;4.72;;
9848;SDS011;4963;51.444;6.528;2023-06-24T08:10:04;4.97;;;4.57;;
9848;SDS011;4963;51.444;6.528;2023-06-24T08:12:32;6.13;;;5.53;;
9848;SDS011;4963;51.444;6.528;2023-06-24T08:15:00;7.65;;;4.95;;
9848;SDS011;4963;51.444;6.528;2023-06-24T08:17:27;5.68;;;4.90;;
9848;SDS011;4963;51.444;6.528;2023-06-24T08:19:54;7.93;;;6.05;;
9848;SDS011;4963;51.444;6.528;2023-06-24T08:22:21;8.30;;;5.15;;
9848;SDS011;4963;51.444;6.528;2023-06-24T08:24:48;6.50;;;5.32;;
9848;SDS011;4963;51.444;6.528;2023-06-24T08:27:15;6.28;;;5.68;;
9848;SDS011;4963;51.444;6.528;2023-06-24T08:29:42;7.85;;;6.85;;
9848;SDS011;4963;51.444;6.528;2023-06-24T08:32:10;9.20;;;6.50;;
9848;SDS011;4963;51.444;6.528;2023-06-24T08:34:37;7.47;;;6.63;;
9848;SDS011;4963;51.444;6.528;2023-06-24T08:37:04;10.75;;;7.15;;
9848;SDS011;4963;51.444;6.528;2023-06-24T08:39:31;7.30;;;6.60;;
9848;SDS011;4963;51.444;6.528;2023-06-24T08:41:58;8.13;;;7.32;;
9848;SDS011;4963;51.444;6.528;2023-06-24T08:44:25;10.02;;;7.57;;
9848;SDS011;4963;51.444;6.528;2023-06-24T08:46:52;10.10;;;7.38;;
9848;SDS011;4963;51.444;6.528;2023-06-24T08:49:25;9.00;;;7.82;;
9848;SDS011;4963;51.444;6.528;2023-06-24T08:51:57;9.63;;;7.95;;
9848;SDS011;4963;51.444;6.528;2023-06-24T08:54:27;11.82;;;9.18;;
9848;SDS011;4963;51.444;6.528;2023-06-24T08:56:56;9.70;;;7.90;;
9848;SDS011;4963;51.444;6.528;2023-06-24T08:59:25;9.18;;;7.60;;
9848;SDS011;4963;51.444;6.528;2023-06-24T09:01:52;8.15;;;7.07;;
9848;SDS011;4963;51.444;6.528;2023-06-24T09:04:19;11.32;;;8.13;;
9848;SDS011;4963;51.444;6.528;2023-06-24T09:06:47;8.73;;;7.68;;
9848;SDS011;4963;51.444;6.528;2023-06-24T09:09:17;7.57;;;6.30;;
9848;SDS011;4963;51.444;6.528;2023-06-24T09:11:50;8.57;;;6.07;;
9848;SDS011;4963;51.444;6.528;2023-06-24T09:14:18;8.75;;;6.18;;
9848;SDS011;4963;51.444;6.528;2023-06-24T09:16:50;7.25;;;6.50;;
9848;SDS011;4963;51.444;6.528;2023-06-24T09:19:20;9.27;;;6.25;;
9848;SDS011;4963;51.444;6.528;2023-06-24T09:24:47;5.70;;;4.80;;
9848;SDS011;4963;51.444;6.528;2023-06-24T09:27:15;7.38;;;5.70;;
9848;SDS011;4963;51.444;6.528;2023-06-24T09:29:45;6.35;;;5.53;;
9848;SDS011;4963;51.444;6.528;2023-06-24T09:32:12;7.85;;;5.93;;
9848;SDS011;4963;51.444;6.528;2023-06-24T09:34:39;14.70;;;6.07;;
9848;SDS011;4963;51.444;6.528;2023-06-24T09:37:06;7.55;;;5.40;;
9848;SDS011;4963;51.444;6.528;2023-06-24T09:39:38;7.47;;;5.15;;
9848;SDS011;4963;51.444;6.528;2023-06-24T09:42:07;7.05;;;5.18;;
9848;SDS011;4963;51.444;6.528;2023-06-24T09:44:34;7.05;;;4.90;;
9848;SDS011;4963;51.444;6.528;2023-06-24T09:47:01;6.40;;;4.97;;
9848;SDS011;4963;51.444;6.528;2023-06-24T09:49:29;6.22;;;5.63;;
9848;SDS011;4963;51.444;6.528;2023-06-24T09:51:56;5.93;;;5.30;;
9848;SDS011;4963;51.444;6.528;2023-06-24T09:54:25;7.05;;;5.35;;
9848;SDS011;4963;51.444;6.528;2023-06-24T09:56:55;6.05;;;4.80;;
9848;SDS011;4963;51.444;6.528;2023-06-24T09:59:27;7.32;;;4.93;;
9848;SDS011;4963;51.444;6.528;2023-06-24T10:01:59;5.53;;;4.38;;
9848;SDS011;4963;51.444;6.528;2023-06-24T10:04:28;6.53;;;5.85;;
9848;SDS011;4963;51.444;6.528;2023-06-24T10:06:57;6.72;;;4.78;;
9848;SDS011;4963;51.444;6.528;2023-06-24T10:09:25;6.80;;;5.30;;
9848;SDS011;4963;51.444;6.528;2023-06-24T10:11:52;6.00;;;5.25;;
9848;SDS011;4963;51.444;6.528;2023-06-24T10:14:20;7.82;;;6.15;;
9848;SDS011;4963;51.444;6.528;2023-06-24T10:16:48;5.57;;;4.72;;
9848;SDS011;4963;51.444;6.528;2023-06-24T10:19:18;7.82;;;6.22;;
9848;SDS011;4963;51.444;6.528;2023-06-24T10:21:49;6.55;;;5.95;;
9848;SDS011;4963;51.444;6.528;2023-06-24T10:24:27;6.47;;;5.78;;
9848;SDS011;4963;51.444;6.528;2023-06-24T10:26:59;7.00;;;5.60;;
9848;SDS011;4963;51.444;6.528;2023-06-24T10:29:32;5.70;;;5.13;;
9848;SDS011;4963;51.444;6.528;2023-06-24T10:32:04;6.35;;;5.75;;
9848;SDS011;4963;51.444;6.528;2023-06-24T10:34:32;5.82;;;4.50;;
9848;SDS011;4963;51.444;6.528;2023-06-24T10:37:07;7.20;;;4.18;;
9848;SDS011;4963;51.444;6.528;2023-06-24T10:39:36;5.88;;;4.45;;
9848;SDS011;4963;51.444;6.528;2023-06-24T10:45:16;6.80;;;4.78;;
9848;SDS011;4963;51.444;6.528;2023-06-24T10:47:45;6.50;;;4.32;;
9848;SDS011;4963;51.444;6.528;2023-06-24T10:50:13;5.38;;;4.03;;
9848;SDS011;4963;51.444;6.528;2023-06-24T10:52:41;5.03;;;4.32;;
9848;SDS011;4963;51.444;6.528;2023-06-24T10:55:09;4.78;;;3.70;;
9848;SDS011;4963;51.444;6.528;2023-06-24T10:57:39;4.00;;;3.60;;
9848;SDS011;4963;51.444;6.528;2023-06-24T11:00:06;4.63;;;3.78;;
9848;SDS011;4963;51.444;6.528;2023-06-24T11:02:35;4.60;;;4.07;;
9848;SDS011;4963;51.444;6.528;2023-06-24T11:05:03;5.40;;;3.85;;
9848;SDS011;4963;51.444;6.528;2023-06-24T11:07:31;4.90;;;4.00;;
9848;SDS011;4963;51.444;6.528;2023-06-24T11:10:01;4.75;;;4.25;;
9848;SDS011;4963;51.444;6.528;2023-06-24T11:12:30;5.50;;;4.15;;
9848;SDS011;4963;51.444;6.528;2023-06-24T11:14:59;4.88;;;4.22;;
9848;SDS011;4963;51.444;6.528;2023-06-24T11:17:26;4.35;;;3.88;;
9848;SDS011;4963;51.444;6.528;2023-06-24T11:19:55;4.68;;;3.50;;
9848;SDS011;4963;51.444;6.528;2023-06-24T11:22:23;5.15;;;3.70;;
9848;SDS011;4963;51.444;6.528;2023-06-24T11:24:50;3.90;;;3.50;;
9848;SDS011;4963;51.444;6.528;2023-06-24T11:27:23;4.07;;;3.60;;
9848;SDS011;4963;51.444;6.528;2023-06-24T11:29:51;4.90;;;3.97;;
9848;SDS011;4963;51.444;6.528;2023-06-24T11:32:19;4.70;;;4.15;;
9848;SDS011;4963;51.444;6.528;2023-06-24T11:34:46;5.18;;;3.50;;
9848;SDS011;4963;51.444;6.528;2023-06-24T11:37:16;4.93;;;4.40;;
9848;SDS011;4963;51.444;6.528;2023-06-24T11:39:44;4.38;;;3.67;;
9848;SDS011;4963;51.444;6.528;2023-06-24T11:42:26;3.53;;;3.22;;
9848;SDS011;4963;51.444;6.528;2023-06-24T11:44:58;3.22;;;2.92;;
9848;SDS011;4963;51.444;6.528;2023-06-24T11:47:26;3.88;;;3.30;;
9848;SDS011;4963;51.444;6.528;2023-06-24T11:49:57;3.83;;;2.92;;
9848;SDS011;4963;51.444;6.528;2023-06-24T11:52:28;3.80;;;3.35;;
9848;SDS011;4963;51.444;6.528;2023-06-24T11:54:59;3.65;;;3.17;;
9848;SDS011;4963;51.444;6.528;2023-06-24T12:00:19;2.90;;;2.58;;
9848;SDS011;4963;51.444;6.528;2023-06-24T12:02:48;3.35;;;2.92;;
9848;SDS011;4963;51.444;6.528;2023-06-24T12:05:19;5.57;;;3.00;;
9848;SDS011;4963;51.444;6.528;2023-06-24T12:07:53;4.82;;;2.67;;
9848;SDS011;4963;51.444;6.528;2023-06-24T12:10:21;3.40;;;2.97;;
9848;SDS011;4963;51.444;6.528;2023-06-24T12:12:48;3.28;;;2.97;;
9848;SDS011;4963;51.444;6.528;2023-06-24T12:15:15;3.38;;;3.08;;
9848;SDS011;4963;51.444;6.528;2023-06-24T12:17:42;3.40;;;3.10;;
9848;SDS011;4963;51.444;6.528;2023-06-24T12:20:09;3.63;;;3.03;;
9848;SDS011;4963;51.444;6.528;2023-06-24T12:22:38;3.80;;;2.90;;
9848;SDS011;4963;51.444;6.528;2023-06-24T12:25:07;5.63;;;3.30;;
9848;SDS011;4963;51.444;6.528;2023-06-24T12:27:35;3.55;;;2.65;;
9848;SDS011;4963;51.444;6.528;2023-06-24T12:30:02;4.20;;;3.10;;
9848;SDS011;4963;51.444;6.528;2023-06-24T12:32:29;3.30;;;2.95;;
9848;SDS011;4963;51.444;6.528;2023-06-24T12:34:56;3.67;;;3.08;;
9848;SDS011;4963;51.444;6.528;2023-06-24T12:37:23;5.50;;;3.30;;
9848;SDS011;4963;51.444;6.528;2023-06-24T12:39:50;3.45;;;3.05;;
9848;SDS011;4963;51.444;6.528;2023-06-24T12:42:18;3.83;;;3.00;;
9848;SDS011;4963;51.444;6.528;2023-06-24T12:44:45;5.07;;;3.38;;
9848;SDS011;4963;51.444;6.528;2023-06-24T12:47:12;4.63;;;3.28;;
9848;SDS011;4963;51.444;6.528;2023-06-24T12:49:39;4.35;;;3.05;;
9848;SDS011;4963;51.444;6.528;2023-06-24T12:52:06;3.63;;;3.25;;
9848;SDS011;4963;51.444;6.528;2023-06-24T12:54:33;3.08;;;2.67;;
9848;SDS011;4963;51.444;6.528;2023-06-24T12:57:01;3.42;;;3.03;;
9848;SDS011;4963;51.444;6.528;2023-06-24T12:59:29;5.45;;;3.08;;
9848;SDS011;4963;51.444;6.528;2023-06-24T13:01:56;3.63;;;2.92;;
9848;SDS011;4963;51.444;6.528;2023-06-24T13:04:23;5.53;;;3.00;;
9848;SDS011;4963;51.444;6.528;2023-06-24T13:06:50;3.58;;;2.97;;
9848;SDS011;4963;51.444;6.528;2023-06-24T13:09:17;4.65;;;3.17;;
9848;SDS011;4963;51.444;6.528;2023-06-24T13:11:45;4.45;;;2.97;;
9848;SDS011;4963;51.444;6.528;2023-06-24T13:14:12;3.03;;;2.72;;
9848;SDS011;4963;51.444;6.528;2023-06-24T13:16:40;6.20;;;2.80;;
9848;SDS011;4963;51.444;6.528;2023-06-24T13:19:07;3.45;;;2.47;;
9848;SDS011;4963;51.444;6.528;2023-06-24T13:21:34;5.00;;;2.60;;
9848;SDS011;4963;51.444;6.528;2023-06-24T13:24:00;2.70;;;2.50;;
9848;SDS011;4963;51.444;6.528;2023-06-24T13:26:27;5.60;;;2.70;;
9848;SDS011;4963;51.444;6.528;2023-06-24T13:28:54;5.22;;;2.75;;
9848;SDS011;4963;51.444;6.528;2023-06-24T13:31:21;2.65;;;2.28;;
9848;SDS011;4963;51.444;6.528;2023-06-24T13:33:50;3.72;;;2.63;;
9848;SDS011;4963;51.444;6.528;2023-06-24T13:36:28;3.00;;;2.60;;
9848;SDS011;4963;51.444;6.528;2023-06-24T13:38:57;3.20;;;2.60;;
9848;SDS011;4963;51.444;6.528;2023-06-24T13:41:24;4.43;;;2.47;;
9848;SDS011;4963;51.444;6.528;2023-06-24T13:43:54;3.10;;;2.80;;
9848;SDS011;4963;51.444;6.528;2023-06-24T13:46:21;3.25;;;2.88;;
9848;SDS011;4963;51.444;6.528;2023-06-24T13:48:50;2.70;;;2.20;;
9848;SDS011;4963;51.444;6.528;2023-06-24T13:51:17;3.28;;;2.97;;
9848;SDS011;4963;51.444;6.528;2023-06-24T13:53:44;4.45;;;2.80;;
9848;SDS011;4963;51.444;6.528;2023-06-24T13:56:11;2.92;;;2.63;;
9848;SDS011;4963;51.444;6.528;2023-06-24T13:58:38;3.13;;;2.83;;
9848;SDS011;4963;51.444;6.528;2023-06-24T14:01:05;3.10;;;2.80;;
9848;SDS011;4963;51.444;6.528;2023-06-24T14:03:32;4.53;;;2.45;;
9848;SDS011;4963;51.444;6.528;2023-06-24T14:06:01;3.22;;;2.47;;
9848;SDS011;4963;51.444;6.528;2023-06-24T14:08:28;6.25;;;2.53;;
9848;SDS011;4963;51.444;6.528;2023-06-24T14:10:57;2.90;;;2.58;;
9848;SDS011;4963;51.444;6.528;2023-06-24T14:16:46;2.95;;;2.60;;
9848;SDS011;4963;51.444;6.528;2023-06-24T14:19:13;2.88;;;2.60;;
9848;SDS011;4963;51.444;6.528;2023-06-24T14:21:41;2.85;;;2.47;;
9848;SDS011;4963;51.444;6.528;2023-06-24T14:24:08;2.88;;;2.45;;
9848;SDS011;4963;51.444;6.528;2023-06-24T14:26:36;5.50;;;2.78;;
9848;SDS011;4963;51.444;6.528;2023-06-24T14:29:03;3.83;;;2.67;;
9848;SDS011;4963;51.444;6.528;2023-06-24T14:31:30;2.50;;;2.28;;
9848;SDS011;4963;51.444;6.528;2023-06-24T14:33:57;3.83;;;2.30;;
9848;SDS011;4963;51.444;6.528;2023-06-24T14:36:24;2.83;;;2.42;;
9848;SDS011;4963;51.444;6.528;2023-06-24T14:38:52;2.80;;;2.35;;
9848;SDS011;4963;51.444;6.528;2023-06-24T14:41:19;3.40;;;2.80;;
9848;SDS011;4963;51.444;6.528;2023-06-24T14:43:46;3.38;;;2.72;;
9848;SDS011;4963;51.444;6.528;2023-06-24T14:46:13;2.50;;;2.30;;
9848;SDS011;4963;51.444;6.528;2023-06-24T14:48:40;3.03;;;2.60;;
9848;SDS011;4963;51.444;6.528;2023-06-24T14:51:07;3.38;;;2.75;;
9848;SDS011;4963;51.444;6.528;2023-06-24T14:53:34;4.03;;;2.70;;
9848;SDS011;4963;51.444;6.528;2023-06-24T14:56:02;2.88;;;2.53;;
9848;SDS011;4963;51.444;6.528;2023-06-24T14:58:29;3.50;;;2.40;;
9848;SDS011;4963;51.444;6.528;2023-06-24T15:00:56;4.00;;;2.50;;
9848;SDS011;4963;51.444;6.528;2023-06-24T15:03:26;5.00;;;2.47;;
9848;SDS011;4963;51.444;6.528;2023-06-24T15:05:53;4.28;;;3.42;;
9848;SDS011;4963;51.444;6.528;2023-06-24T15:08:20;2.67;;;2.40;;
9848;SDS011;4963;51.444;6.528;2023-06-24T15:10:50;4.57;;;2.80;;
9848;SDS011;4963;51.444;6.528;2023-06-24T15:13:19;4.57;;;3.03;;
9848;SDS011;4963;51.444;6.528;2023-06-24T15:15:45;4.20;;;2.78;;
9848;SDS011;4963;51.444;6.528;2023-06-24T15:18:14;4.15;;;2.55;;
9848;SDS011;4963;51.444;6.528;2023-06-24T15:20:41;3.63;;;2.88;;
9848;SDS011;4963;51.444;6.528;2023-06-24T15:23:08;2.75;;;2.55;;
9848;SDS011;4963;51.444;6.528;2023-06-24T15:25:35;2.97;;;2.63;;
9848;SDS011;4963;51.444;6.528;2023-06-24T15:28:02;3.40;;;2.58;;
9848;SDS011;4963;51.444;6.528;2023-06-24T15:30:30;3.35;;;2.58;;
9848;SDS011;4963;51.444;6.528;2023-06-24T15:32:57;3.58;;;2.47;;
9848;SDS011;4963;51.444;6.528;2023-06-24T15:35:24;2.85;;;2.50;;
9848;SDS011;4963;51.444;6.528;2023-06-24T15:37:51;2.72;;;2.42;;
9848;SDS011;4963;51.444;6.528;2023-06-24T15:40:18;2.70;;;2.42;;
9848;SDS011;4963;51.444;6.528;2023-06-24T15:42:45;4.18;;;2.70;;
9848;SDS011;4963;51.444;6.528;2023-06-24T15:45:12;3.45;;;2.70;;
9848;SDS011;4963;51.444;6.528;2023-06-24T15:47:40;4.47;;;2.90;;
9848;SDS011;4963;51.444;6.528;2023-06-24T15:50:08;3.47;;;2.53;;
9848;SDS011;4963;51.444;6.528;2023-06-24T15:52:35;3.25;;;2.60;;
9848;SDS011;4963;51.444;6.528;2023-06-24T15:55:03;3.00;;;2.70;;